Página principal
METAR-TAF:

METAR-TAF

Aeroportos :

Tongatapu, Tonga

Aeroporto Internacional de Fuaʻamotu

latitude: 21-14S, longitude: 175-09W, altura: 38 m

Observação actual do tempo

O boletim foi feito há 4 horas e 46 minutos, às 00:00 UTC
Vento 4 kt de este
Temperatura 31°C
Humidade 66%
Pressão 1011 hPa
Visibilidade 10 km ou mais
Poucas nuvensa uma altura de 1800 ft, Cumulus congestus.

METAR: NFTF 220000Z 09004KT 9999 FEW018TCU 31/24 Q1011

Hora: 17:46 (04:46 UTC)

Previsão

O boletim foi feito há 5 horas e 33 minutos, às 23:13 UTC
Previsão válida de 22 às 00 UTC a 22 às 24 UTC
Vento 8 kt de este
Visibilidade 10 km ou mais
Nuvens dispersasa uma altura de 1800 ft
Nuvens dispersasa uma altura de 4500 ft
Probabilidade 30% :
Temporariamente
de 22 às 02 UTC a 22 às 06 UTC
Visibilidade: 5000 m
Poucas nuvensa uma altura de 1800 ft, Cumulonimbus.
trovoada, chuva

TAF: NFTF 212313Z 2200/2224 10008KT 9999 SCT018 SCT045 PROB30 TEMPO 2202/2206 5000 TSRA FEW018CB

Observações e previsões do tempo de mais de 4000 aeroportos (mensagens METAR e TAF).

As estações disponíveis são os pontos amarelos e vermelhos sobre o mapa.

Mova o rato sobre o mapa para ver o nome da estação.

Depois clique no ponto para visualizar as observações e previsões meteorológicas.

Para alterar o mapa : clique nos botões verdes com uma cruz preta para aumentar o zoom; no botão verde com uma pitada de zoom; ou nas setas verdes para mapas adjacentes.


METAR-TAF: